Dunstable, MA (01827)

12:31 PM EDT on September 04, 2015 (GMT -0400)
APRSWXNET | Change Station
CLOSE
Current Station
Personal Weather Station
Location: Nashua, NH
Elevation: 695 ft
Nearby Weather Stations

Elev 695 ft 42.70 °N, 71.50 °W | Updated 33 minutes ago

Mostly Cloudy
Mostly Cloudy
73 °F
Feels Like 77 °F
N
2
Wind Variable Wind from East
Gusts 4.0 mph

Today
High -- | Low -- °F
--% Chance of Precip.
Yesterday
High -- | Low -- °F
Precip. -- in
6:13 AM 7:15 PM
Waning Gibbous, 58% visible
Pressure 30.23 in
Visibility 10.0 miles
Clouds Mostly Cloudy 4500 ft
Heat Index 77 °F
Dew Point 56 °F
Humidity 55%
Rainfall -999.00 in
Snow Depth Not available.
UV 4 out of 12
Pollen 8.50 out of 12
Air Quality Not available.
Flu Activity Not available.
METAR KASH 041551Z 06006KT 10SM BKN045 23/12 A3020 RMK AO2 SLP235 T02280122

More Conditions Fewer Conditions

Pressure 30.23 in
Visibility 10.0 miles
Clouds Mostly Cloudy 4500 ft
Heat Index 77 °F
Dew Point 56 °F
Humidity 55%
Rainfall -999.00 in
Snow Depth Not available.
UV 4 out of 12
Pollen 8.50 out of 12
Air Quality Not available.
Flu Activity Not available.
METAR KASH 041551Z 06006KT 10SM BKN045 23/12 A3020 RMK AO2 SLP235 T02280122

More Conditions Fewer Conditions

10-Day Weather Forecast

Almanac

Astronomy

Sep. 04, 2015 Rise Set
Actual Time 6:13 AM EDT 7:15 PM EDT
Civil Twilight 5:44 AM EDT 7:44 PM EDT
Nautical Twilight 5:10 AM EDT 8:18 PM EDT
Astronomical Twilight 4:34 AM EDT 8:54 PM EDT
Moon 11:16 PM EDT 1:00 PM EDT
Length of Visible Light 13h 59m
Length of Day
13h 01m
Tomorrow will be 2m 48s shorter.
Waning Gibbous, 58% of the Moon is Illuminated
Today
Waning Gibbous
Sep 5
Last Quarter
Sep 13
New
Sep 21
First Quarter
Sep 27
Full

Today's Extremes

State Highs State Lows

Community

WunderPhotos

Upload Photos

1,852,220 photos uploaded!

Nearby

Air Quality

  Air Quality AQ Index Pollutant
Friday Good
PM2.5
Friday Good
OZONE
Saturday Good
PM2.5
Saturday Good
OZONE
Sunday Good
PM2.5
Sunday Good
OZONE
Monday Moderate
PM2.5
Monday Good
OZONE
Tuesday Moderate
PM2.5
Tuesday Good
OZONE

Snow Depth

Station Depth Elevation
No new snow has been reported.

Earthquake Activity

City Distance Mag. Time & Date
No recent earthquake activity has been reported nearby.
Minimum magnitude displayed is 2.5.

Coastal Water Temperatures

Place Temperature
No Stations Reporting

Nearby Weather Stations